Aeroporto :
LOGIN :

Iscrizione | Disclaimer

   EN    FR    IT 

 










Sommario :    VFR   VFR Marginale   IFR   IFR Intensivo   IFR Molto Intensivo
Visibilità : 
Base nubi : 
>= 8 km
>= 3000ft
5 / 8 km
1000 / 3000 ft
1500m / 5 km
500 / 1000 ft
800 / 1500m
200 / 500 ft
< 800m
< 200 ft
Simboli :   Temporali  Nebbia  Neve Forte  Precipitazioni Forti  Vento > 20 kt
SIGMETs :   Varie  Temporali  Ghiacco  Turbolenza  Onda orograficha  Ceneri Vulcaniche







- Altitudine del aeroporto : 17 ft
- Codice IATA : GRQ


EHGG - Groningen Eelde

ULTIMO METAR :
  • 161625Z AUTO 29007KT 250V320 9999 BKN013 OVC015 16/13 Q1017 BECMG BKN016

METARs OBSOLETI :
  • 161555Z AUTO 29005KT 240V330 9999 BKN012 OVC015 16/13 Q1017 BECMG BKN016
  • 161525Z AUTO 30007KT 270V340 9999 FEW003 BKN013 OVC015 16/13 Q1018 BECMG BKN016
  • 161455Z AUTO 29007KT 270V330 9999 OVC015 16/13 Q1018 TEMPO BKN014
  • 161425Z AUTO 28007KT 250V320 9999 BKN012 OVC015 16/13 Q1018 BECMG BKN016
  • 161355Z AUTO 28007KT 250V320 9999 BKN011 OVC014 16/13 Q1018 BECMG BKN016

TAF AMD TAF EHGG
Valido dal 16 a 14 ore il 17 a 18 ore UTC


161434Z 1614/1718 30007KT 9999 BKN015
TEMPO 1614/1621 BKN012
BECMG 1621/1623 BKN012
PROB40 1623/1708 4000 BR BKN008
BECMG 1707/1710 SCT016
PROB30
TEMPO 1712/1718 7000 -SHRA FEW025TCU
Nessun NOTAM noto per questo aeroporto.



MetMap, La meteo Aeronautica in un colpo d'occhio ! - Copyright ORBIFLY Dicembre 2007 - Disclaimer

ORBIFLY MET'MAP TEAM :

Programmazione e sviluppo : Alexandra Zaïnal
Concezione e sviluppo : Baudouin d'Aumeries
Co-Programmazione e sviluppo : Marc-Olivier Méhu
Supporto tecnico e logistico : Manuel Goepfert
Aiuto per la traduzione : Arnaldo La Scala

Contatto : metmap@orbifly.com




FONTI E CREDITI :

   NOAA